sensor_id;sensor_type;location;lat;lon;timestamp;pressure;altitude;pressure_sealevel;temperature;humidity
26823;BME280;14852;51.910;8.878;2022-11-04T00:00:53;98236.59;;;14.63;61.51
26823;BME280;14852;51.910;8.878;2022-11-04T00:03:19;98248.53;;;14.66;61.19
26823;BME280;14852;51.910;8.878;2022-11-04T00:05:45;98251.16;;;14.66;61.41
26823;BME280;14852;51.910;8.878;2022-11-04T00:08:10;98256.38;;;14.66;61.46
26823;BME280;14852;51.910;8.878;2022-11-04T00:10:53;98255.72;;;14.64;61.66
26823;BME280;14852;51.910;8.878;2022-11-04T00:13:37;98249.94;;;14.60;61.37
26823;BME280;14852;51.910;8.878;2022-11-04T00:16:03;98254.34;;;14.60;61.49
26823;BME280;14852;51.910;8.878;2022-11-04T00:18:48;98247.34;;;14.60;61.20
26823;BME280;14852;51.910;8.878;2022-11-04T00:21:13;98241.28;;;14.60;61.70
26823;BME280;14852;51.910;8.878;2022-11-04T00:23:58;98248.31;;;14.59;61.32
26823;BME280;14852;51.910;8.878;2022-11-04T00:26:42;98251.88;;;14.58;61.52
26823;BME280;14852;51.910;8.878;2022-11-04T00:29:27;98254.50;;;14.58;61.67
26823;BME280;14852;51.910;8.878;2022-11-04T00:31:53;98225.75;;;14.58;61.34
26823;BME280;14852;51.910;8.878;2022-11-04T00:34:37;98226.56;;;14.59;61.86
26823;BME280;14852;51.910;8.878;2022-11-04T00:37:03;98230.00;;;14.59;61.37
26823;BME280;14852;51.910;8.878;2022-11-04T00:39:29;98236.19;;;14.58;61.79
26823;BME280;14852;51.910;8.878;2022-11-04T00:41:55;98245.84;;;14.58;61.71
26823;BME280;14852;51.910;8.878;2022-11-04T00:44:20;98256.41;;;14.56;61.76
26823;BME280;14852;51.910;8.878;2022-11-04T00:46:46;98262.63;;;14.55;61.95
26823;BME280;14852;51.910;8.878;2022-11-04T00:49:12;98278.16;;;14.57;61.70
26823;BME280;14852;51.910;8.878;2022-11-04T00:51:38;98278.97;;;14.57;61.75
26823;BME280;14852;51.910;8.878;2022-11-04T00:54:04;98279.53;;;14.61;61.50
26823;BME280;14852;51.910;8.878;2022-11-04T00:56:30;98248.84;;;14.63;61.72
26823;BME280;14852;51.910;8.878;2022-11-04T00:58:58;98239.22;;;14.63;61.85
26823;BME280;14852;51.910;8.878;2022-11-04T01:01:24;98247.22;;;14.62;61.45
26823;BME280;14852;51.910;8.878;2022-11-04T01:03:52;98266.31;;;14.62;61.60
26823;BME280;14852;51.910;8.878;2022-11-04T01:06:20;98266.03;;;14.65;61.79
26823;BME280;14852;51.910;8.878;2022-11-04T01:08:47;98265.06;;;14.66;61.76
26823;BME280;14852;51.910;8.878;2022-11-04T01:11:13;98262.16;;;14.69;61.72
26823;BME280;14852;51.910;8.878;2022-11-04T01:13:40;98269.88;;;14.71;61.46
26823;BME280;14852;51.910;8.878;2022-11-04T01:16:08;98271.53;;;14.72;61.72
26823;BME280;14852;51.910;8.878;2022-11-04T01:18:35;98269.59;;;14.74;61.21
26823;BME280;14852;51.910;8.878;2022-11-04T01:21:03;98280.88;;;14.74;61.66
26823;BME280;14852;51.910;8.878;2022-11-04T01:23:30;98295.59;;;14.75;61.30
26823;BME280;14852;51.910;8.878;2022-11-04T01:25:56;98303.13;;;14.78;61.60
26823;BME280;14852;51.910;8.878;2022-11-04T01:28:22;98313.72;;;14.77;62.06
26823;BME280;14852;51.910;8.878;2022-11-04T01:30:48;98324.63;;;14.72;61.74
26823;BME280;14852;51.910;8.878;2022-11-04T01:33:14;98316.38;;;14.67;61.74
26823;BME280;14852;51.910;8.878;2022-11-04T01:35:39;98316.81;;;14.63;62.08
26823;BME280;14852;51.910;8.878;2022-11-04T01:38:05;98299.47;;;14.62;62.20
26823;BME280;14852;51.910;8.878;2022-11-04T01:40:40;98298.94;;;14.58;62.07
26823;BME280;14852;51.910;8.878;2022-11-04T01:43:19;98314.88;;;14.55;62.05
26823;BME280;14852;51.910;8.878;2022-11-04T01:46:03;98338.97;;;14.49;62.19
26823;BME280;14852;51.910;8.878;2022-11-04T01:48:31;98352.75;;;14.41;62.56
26823;BME280;14852;51.910;8.878;2022-11-04T01:50:59;98356.69;;;14.36;62.23
26823;BME280;14852;51.910;8.878;2022-11-04T01:53:33;98341.41;;;14.31;62.55
26823;BME280;14852;51.910;8.878;2022-11-04T01:56:06;98339.25;;;14.27;62.67
26823;BME280;14852;51.910;8.878;2022-11-04T01:58:48;98361.63;;;14.20;62.40
26823;BME280;14852;51.910;8.878;2022-11-04T02:01:16;98345.44;;;14.16;62.61
26823;BME280;14852;51.910;8.878;2022-11-04T02:06:20;98364.25;;;14.10;62.72
26823;BME280;14852;51.910;8.878;2022-11-04T02:08:47;98354.09;;;14.07;62.42
26823;BME280;14852;51.910;8.878;2022-11-04T02:11:14;98364.66;;;14.05;62.41
26823;BME280;14852;51.910;8.878;2022-11-04T02:14:00;98372.63;;;14.04;62.08
26823;BME280;14852;51.910;8.878;2022-11-04T02:16:43;98374.28;;;14.05;62.18
26823;BME280;14852;51.910;8.878;2022-11-04T02:19:35;98378.00;;;14.02;62.34
26823;BME280;14852;51.910;8.878;2022-11-04T02:34:54;98362.13;;;13.75;62.01
26823;BME280;14852;51.910;8.878;2022-11-04T02:38:04;98355.81;;;13.68;62.11
26823;BME280;14852;51.910;8.878;2022-11-04T02:43:24;98365.41;;;13.58;62.10
26823;BME280;14852;51.910;8.878;2022-11-04T02:46:33;98372.53;;;13.56;62.24
26823;BME280;14852;51.910;8.878;2022-11-04T02:49:12;98354.22;;;13.46;62.32
26823;BME280;14852;51.910;8.878;2022-11-04T02:52:08;98362.44;;;13.41;62.23
26823;BME280;14852;51.910;8.878;2022-11-04T02:54:50;98380.28;;;13.36;62.36
26823;BME280;14852;51.910;8.878;2022-11-04T02:57:25;98390.72;;;13.36;62.20
26823;BME280;14852;51.910;8.878;2022-11-04T02:59:59;98387.28;;;13.36;62.41
26823;BME280;14852;51.910;8.878;2022-11-04T03:02:33;98394.00;;;13.38;61.98
26823;BME280;14852;51.910;8.878;2022-11-04T03:05:02;98399.38;;;13.37;62.08
26823;BME280;14852;51.910;8.878;2022-11-04T03:07:34;98408.72;;;13.39;61.89
26823;BME280;14852;51.910;8.878;2022-11-04T03:10:07;98405.16;;;13.40;61.88
26823;BME280;14852;51.910;8.878;2022-11-04T03:12:41;98413.94;;;13.39;61.83
26823;BME280;14852;51.910;8.878;2022-11-04T03:15:18;98407.75;;;13.40;61.67
26823;BME280;14852;51.910;8.878;2022-11-04T03:18:16;98412.13;;;13.40;61.75
26823;BME280;14852;51.910;8.878;2022-11-04T03:20:45;98423.13;;;13.34;62.13
26823;BME280;14852;51.910;8.878;2022-11-04T03:23:13;98424.31;;;13.30;61.75
26823;BME280;14852;51.910;8.878;2022-11-04T03:25:44;98419.50;;;13.25;62.25
26823;BME280;14852;51.910;8.878;2022-11-04T03:29:00;98420.47;;;13.24;61.71
26823;BME280;14852;51.910;8.878;2022-11-04T03:31:41;98415.75;;;13.18;62.14
26823;BME280;14852;51.910;8.878;2022-11-04T03:34:09;98431.69;;;13.15;62.00
26823;BME280;14852;51.910;8.878;2022-11-04T03:36:35;98431.06;;;13.12;62.16
26823;BME280;14852;51.910;8.878;2022-11-04T03:39:00;98435.44;;;13.11;62.13
26823;BME280;14852;51.910;8.878;2022-11-04T03:41:37;98451.72;;;13.15;61.99
26823;BME280;14852;51.910;8.878;2022-11-04T03:44:06;98438.66;;;13.15;62.18
26823;BME280;14852;51.910;8.878;2022-11-04T03:46:31;98437.69;;;13.16;61.99
26823;BME280;14852;51.910;8.878;2022-11-04T03:48:58;98444.31;;;13.20;61.57
26823;BME280;14852;51.910;8.878;2022-11-04T03:51:25;98445.97;;;13.21;61.55
26823;BME280;14852;51.910;8.878;2022-11-04T03:53:51;98453.53;;;13.24;61.36
26823;BME280;14852;51.910;8.878;2022-11-04T03:56:52;98456.69;;;13.27;61.54
26823;BME280;14852;51.910;8.878;2022-11-04T04:05:02;98454.25;;;13.26;61.54
26823;BME280;14852;51.910;8.878;2022-11-04T04:07:40;98465.75;;;13.23;61.44
26823;BME280;14852;51.910;8.878;2022-11-04T04:13:02;98457.22;;;13.21;61.46
26823;BME280;14852;51.910;8.878;2022-11-04T04:15:42;98461.50;;;13.22;61.39
26823;BME280;14852;51.910;8.878;2022-11-04T04:18:12;98479.75;;;13.22;61.24
26823;BME280;14852;51.910;8.878;2022-11-04T04:20:40;98475.59;;;13.20;61.30
26823;BME280;14852;51.910;8.878;2022-11-04T04:23:14;98480.00;;;13.19;61.33
26823;BME280;14852;51.910;8.878;2022-11-04T04:26:03;98485.47;;;13.16;61.44
26823;BME280;14852;51.910;8.878;2022-11-04T04:28:51;98481.31;;;13.14;61.37
26823;BME280;14852;51.910;8.878;2022-11-04T04:31:19;98490.47;;;13.08;61.37
26823;BME280;14852;51.910;8.878;2022-11-04T04:34:05;98489.44;;;12.99;61.56
26823;BME280;14852;51.910;8.878;2022-11-04T04:36:44;98499.16;;;12.97;61.60
26823;BME280;14852;51.910;8.878;2022-11-04T04:39:12;98493.00;;;12.98;61.71
26823;BME280;14852;51.910;8.878;2022-11-04T04:41:59;98503.44;;;12.98;61.91
26823;BME280;14852;51.910;8.878;2022-11-04T04:44:44;98499.88;;;12.99;61.37
26823;BME280;14852;51.910;8.878;2022-11-04T04:47:47;98495.09;;;13.04;61.16
26823;BME280;14852;51.910;8.878;2022-11-04T04:50:18;98490.03;;;13.03;61.22
26823;BME280;14852;51.910;8.878;2022-11-04T04:52:48;98499.75;;;13.01;61.37
26823;BME280;14852;51.910;8.878;2022-11-04T04:55:15;98503.44;;;12.98;61.50
26823;BME280;14852;51.910;8.878;2022-11-04T04:57:41;98487.47;;;12.92;61.56
26823;BME280;14852;51.910;8.878;2022-11-04T05:00:15;98494.13;;;12.85;61.33
26823;BME280;14852;51.910;8.878;2022-11-04T05:02:42;98513.72;;;12.79;61.59
26823;BME280;14852;51.910;8.878;2022-11-04T05:05:08;98513.25;;;12.74;61.96
26823;BME280;14852;51.910;8.878;2022-11-04T05:07:34;98521.44;;;12.69;61.52
26823;BME280;14852;51.910;8.878;2022-11-04T05:10:00;98522.53;;;12.67;61.64
26823;BME280;14852;51.910;8.878;2022-11-04T05:12:26;98534.00;;;12.64;61.80
26823;BME280;14852;51.910;8.878;2022-11-04T05:15:12;98547.28;;;12.61;61.70
26823;BME280;14852;51.910;8.878;2022-11-04T05:17:38;98543.03;;;12.60;61.84
26823;BME280;14852;51.910;8.878;2022-11-04T05:20:04;98554.88;;;12.64;61.54
26823;BME280;14852;51.910;8.878;2022-11-04T05:22:30;98553.78;;;12.67;61.73
26823;BME280;14852;51.910;8.878;2022-11-04T05:24:56;98555.06;;;12.73;61.48
26823;BME280;14852;51.910;8.878;2022-11-04T05:27:21;98567.63;;;12.79;61.44
26823;BME280;14852;51.910;8.878;2022-11-04T05:29:47;98564.75;;;12.82;61.64
26823;BME280;14852;51.910;8.878;2022-11-04T05:32:13;98570.44;;;12.87;61.06
26823;BME280;14852;51.910;8.878;2022-11-04T05:34:39;98570.31;;;12.88;61.06
26823;BME280;14852;51.910;8.878;2022-11-04T05:37:05;98582.41;;;12.89;61.33
26823;BME280;14852;51.910;8.878;2022-11-04T05:39:30;98582.97;;;12.93;61.18
26823;BME280;14852;51.910;8.878;2022-11-04T05:41:56;98580.34;;;12.93;61.09
26823;BME280;14852;51.910;8.878;2022-11-04T05:44:23;98583.66;;;12.95;61.25
26823;BME280;14852;51.910;8.878;2022-11-04T05:46:49;98584.38;;;12.97;61.03
26823;BME280;14852;51.910;8.878;2022-11-04T05:49:14;98583.56;;;12.96;61.43
26823;BME280;14852;51.910;8.878;2022-11-04T05:51:40;98579.88;;;12.99;61.03
26823;BME280;14852;51.910;8.878;2022-11-04T05:54:06;98577.03;;;13.02;61.09
26823;BME280;14852;51.910;8.878;2022-11-04T05:56:32;98574.41;;;13.02;61.12
26823;BME280;14852;51.910;8.878;2022-11-04T05:58:57;98575.25;;;13.02;61.07
26823;BME280;14852;51.910;8.878;2022-11-04T06:01:33;98577.84;;;13.02;61.19
26823;BME280;14852;51.910;8.878;2022-11-04T06:04:00;98597.19;;;13.00;61.25
26823;BME280;14852;51.910;8.878;2022-11-04T06:06:29;98628.59;;;12.98;61.31
26823;BME280;14852;51.910;8.878;2022-11-04T06:08:56;98626.09;;;12.97;61.06
26823;BME280;14852;51.910;8.878;2022-11-04T06:11:23;98616.03;;;12.92;61.06
26823;BME280;14852;51.910;8.878;2022-11-04T06:13:50;98629.56;;;12.86;61.18
26823;BME280;14852;51.910;8.878;2022-11-04T06:16:17;98645.00;;;12.78;61.71
26823;BME280;14852;51.910;8.878;2022-11-04T06:18:43;98645.22;;;12.75;61.54
26823;BME280;14852;51.910;8.878;2022-11-04T06:23:42;98645.47;;;12.72;61.93
26823;BME280;14852;51.910;8.878;2022-11-04T06:26:09;98659.22;;;12.74;61.59
26823;BME280;14852;51.910;8.878;2022-11-04T06:28:35;98654.09;;;12.73;61.59
26823;BME280;14852;51.910;8.878;2022-11-04T06:31:04;98664.53;;;12.73;61.81
26823;BME280;14852;51.910;8.878;2022-11-04T06:33:30;98668.09;;;12.72;61.40
26823;BME280;14852;51.910;8.878;2022-11-04T06:36:01;98679.59;;;12.69;61.79
26823;BME280;14852;51.910;8.878;2022-11-04T06:38:33;98668.19;;;12.70;61.85
26823;BME280;14852;51.910;8.878;2022-11-04T06:40:59;98668.19;;;12.70;61.53
26823;BME280;14852;51.910;8.878;2022-11-04T06:43:25;98659.56;;;12.69;61.40
26823;BME280;14852;51.910;8.878;2022-11-04T06:45:58;98666.44;;;12.70;61.63
26823;BME280;14852;51.910;8.878;2022-11-04T06:48:24;98668.69;;;12.75;61.38
26823;BME280;14852;51.910;8.878;2022-11-04T06:50:50;98678.50;;;12.72;61.51
26823;BME280;14852;51.910;8.878;2022-11-04T06:53:16;98686.59;;;12.68;61.24
26823;BME280;14852;51.910;8.878;2022-11-04T06:55:42;98679.94;;;12.64;61.50
26823;BME280;14852;51.910;8.878;2022-11-04T06:58:08;98687.06;;;12.62;61.52
26823;BME280;14852;51.910;8.878;2022-11-04T07:00:34;98686.34;;;12.60;61.27
26823;BME280;14852;51.910;8.878;2022-11-04T07:03:00;98684.69;;;12.59;61.34
26823;BME280;14852;51.910;8.878;2022-11-04T07:05:26;98673.19;;;12.62;61.69
26823;BME280;14852;51.910;8.878;2022-11-04T07:07:52;98671.31;;;12.64;61.37
26823;BME280;14852;51.910;8.878;2022-11-04T07:10:18;98655.56;;;12.65;61.41
26823;BME280;14852;51.910;8.878;2022-11-04T07:12:43;98664.91;;;12.68;61.00
26823;BME280;14852;51.910;8.878;2022-11-04T07:15:10;98657.09;;;12.68;61.22
26823;BME280;14852;51.910;8.878;2022-11-04T07:17:36;98666.44;;;12.70;61.39
26823;BME280;14852;51.910;8.878;2022-11-04T07:20:02;98676.38;;;12.77;60.82
26823;BME280;14852;51.910;8.878;2022-11-04T07:22:30;98671.06;;;12.78;61.22
26823;BME280;14852;51.910;8.878;2022-11-04T07:24:56;98672.44;;;12.82;60.85
26823;BME280;14852;51.910;8.878;2022-11-04T07:27:22;98678.25;;;12.86;60.64
26823;BME280;14852;51.910;8.878;2022-11-04T07:29:47;98678.97;;;12.88;60.79
26823;BME280;14852;51.910;8.878;2022-11-04T07:32:13;98680.41;;;12.92;60.45
26823;BME280;14852;51.910;8.878;2022-11-04T07:34:39;98689.75;;;12.94;60.69
26823;BME280;14852;51.910;8.878;2022-11-04T07:37:05;98699.94;;;12.97;60.74
26823;BME280;14852;51.910;8.878;2022-11-04T07:39:31;98696.25;;;13.00;60.36
26823;BME280;14852;51.910;8.878;2022-11-04T07:41:56;98689.16;;;13.02;60.26
26823;BME280;14852;51.910;8.878;2022-11-04T07:44:22;98694.09;;;13.05;60.62
26823;BME280;14852;51.910;8.878;2022-11-04T07:46:48;98698.97;;;13.10;60.45
26823;BME280;14852;51.910;8.878;2022-11-04T07:49:14;98706.19;;;13.17;60.27
26823;BME280;14852;51.910;8.878;2022-11-04T07:51:40;98706.44;;;13.25;60.16
26823;BME280;14852;51.910;8.878;2022-11-04T07:54:06;98705.09;;;13.31;60.04
26823;BME280;14852;51.910;8.878;2022-11-04T07:56:32;98717.78;;;13.35;60.04
26823;BME280;14852;51.910;8.878;2022-11-04T07:58:57;98727.16;;;13.38;59.80
26823;BME280;14852;51.910;8.878;2022-11-04T08:01:24;98724.41;;;13.39;60.03
26823;BME280;14852;51.910;8.878;2022-11-04T08:03:50;98726.41;;;13.47;60.04
26823;BME280;14852;51.910;8.878;2022-11-04T08:06:18;98723.19;;;13.55;59.63
26823;BME280;14852;51.910;8.878;2022-11-04T08:08:44;98729.81;;;13.59;59.70
26823;BME280;14852;51.910;8.878;2022-11-04T08:11:16;98726.72;;;13.86;59.34
26823;BME280;14852;51.910;8.878;2022-11-04T08:13:42;98725.47;;;14.01;59.01
26823;BME280;14852;51.910;8.878;2022-11-04T08:16:14;98725.47;;;14.01;58.57
26823;BME280;14852;51.910;8.878;2022-11-04T08:18:41;98716.16;;;14.08;58.72
26823;BME280;14852;51.910;8.878;2022-11-04T08:21:08;98725.47;;;14.22;58.84
26823;BME280;14852;51.910;8.878;2022-11-04T08:23:34;98720.25;;;14.42;58.28
26823;BME280;14852;51.910;8.878;2022-11-04T08:26:00;98723.69;;;14.64;57.61
26823;BME280;14852;51.910;8.878;2022-11-04T08:28:27;98722.88;;;14.73;57.40
26823;BME280;14852;51.910;8.878;2022-11-04T08:31:07;98719.41;;;15.12;57.12
26823;BME280;14852;51.910;8.878;2022-11-04T08:33:33;98726.41;;;15.71;55.77
26823;BME280;14852;51.910;8.878;2022-11-04T08:36:05;98712.25;;;16.49;54.82
26823;BME280;14852;51.910;8.878;2022-11-04T08:38:31;98721.38;;;17.37;53.46
26823;BME280;14852;51.910;8.878;2022-11-04T08:41:01;98719.94;;;18.14;51.73
26823;BME280;14852;51.910;8.878;2022-11-04T08:43:28;98718.38;;;18.03;51.74
26823;BME280;14852;51.910;8.878;2022-11-04T08:45:54;98719.72;;;17.54;52.31
26823;BME280;14852;51.910;8.878;2022-11-04T08:48:20;98720.19;;;17.04;53.29
26823;BME280;14852;51.910;8.878;2022-11-04T08:50:53;98724.00;;;17.10;54.24
26823;BME280;14852;51.910;8.878;2022-11-04T08:53:19;98718.63;;;18.61;51.18
26823;BME280;14852;51.910;8.878;2022-11-04T08:55:45;98720.19;;;19.97;48.58
26823;BME280;14852;51.910;8.878;2022-11-04T08:58:11;98718.03;;;20.96;46.78
26823;BME280;14852;51.910;8.878;2022-11-04T09:00:37;98720.91;;;22.02;45.37
26823;BME280;14852;51.910;8.878;2022-11-04T09:03:03;98718.41;;;22.23;44.99
26823;BME280;14852;51.910;8.878;2022-11-04T09:05:30;98730.53;;;21.72;46.13
26823;BME280;14852;51.910;8.878;2022-11-04T09:07:55;98729.16;;;20.83;47.50
26823;BME280;14852;51.910;8.878;2022-11-04T09:10:22;98734.84;;;19.99;49.37
26823;BME280;14852;51.910;8.878;2022-11-04T09:12:47;98737.44;;;19.50;50.77
26823;BME280;14852;51.910;8.878;2022-11-04T09:15:13;98741.25;;;19.64;50.53
26823;BME280;14852;51.910;8.878;2022-11-04T09:17:39;98727.25;;;20.20;49.11
26823;BME280;14852;51.910;8.878;2022-11-04T09:20:06;98730.16;;;21.13;46.98
26823;BME280;14852;51.910;8.878;2022-11-04T09:22:32;98729.69;;;21.72;45.76
26823;BME280;14852;51.910;8.878;2022-11-04T09:24:57;98737.88;;;21.31;46.87
26823;BME280;14852;51.910;8.878;2022-11-04T09:27:23;98742.44;;;20.51;48.09
26823;BME280;14852;51.910;8.878;2022-11-04T09:29:49;98751.50;;;19.83;49.74
26823;BME280;14852;51.910;8.878;2022-11-04T09:32:15;98748.38;;;19.30;50.45
26823;BME280;14852;51.910;8.878;2022-11-04T09:34:41;98749.38;;;18.87;50.80
26823;BME280;14852;51.910;8.878;2022-11-04T09:37:07;98753.69;;;18.44;51.83
26823;BME280;14852;51.910;8.878;2022-11-04T09:39:32;98752.13;;;18.07;52.35
26823;BME280;14852;51.910;8.878;2022-11-04T09:45:12;98757.50;;;17.53;52.44
26823;BME280;14852;51.910;8.878;2022-11-04T09:47:40;98763.00;;;17.32;52.97
26823;BME280;14852;51.910;8.878;2022-11-04T09:50:15;98766.66;;;17.21;53.02
26823;BME280;14852;51.910;8.878;2022-11-04T09:52:48;98756.66;;;17.07;52.93
26823;BME280;14852;51.910;8.878;2022-11-04T09:55:27;98756.44;;;16.91;52.91
26823;BME280;14852;51.910;8.878;2022-11-04T09:57:56;98760.34;;;16.77;53.12
26823;BME280;14852;51.910;8.878;2022-11-04T10:00:29;98752.78;;;16.64;53.12
26823;BME280;14852;51.910;8.878;2022-11-04T10:14:56;98764.94;;;16.56;52.95
26823;BME280;14852;51.910;8.878;2022-11-04T10:18:04;98764.94;;;16.65;52.76
26823;BME280;14852;51.910;8.878;2022-11-04T10:23:35;98774.38;;;16.95;52.78
26823;BME280;14852;51.910;8.878;2022-11-04T10:26:14;98774.84;;;17.18;52.05
26823;BME280;14852;51.910;8.878;2022-11-04T10:28:54;98771.56;;;17.34;51.74
26823;BME280;14852;51.910;8.878;2022-11-04T10:31:22;98772.84;;;17.48;51.61
26823;BME280;14852;51.910;8.878;2022-11-04T10:34:04;98768.72;;;17.45;51.60
26823;BME280;14852;51.910;8.878;2022-11-04T10:36:34;98777.63;;;17.34;51.37
26823;BME280;14852;51.910;8.878;2022-11-04T10:39:08;98781.38;;;17.32;51.61
26823;BME280;14852;51.910;8.878;2022-11-04T10:41:39;98796.34;;;17.22;51.81
26823;BME280;14852;51.910;8.878;2022-11-04T10:44:23;98784.94;;;17.13;51.98
26823;BME280;14852;51.910;8.878;2022-11-04T10:47:08;98798.78;;;17.06;52.07
26823;BME280;14852;51.910;8.878;2022-11-04T10:50:21;98795.78;;;16.91;52.41
26823;BME280;14852;51.910;8.878;2022-11-04T10:52:49;98809.13;;;16.70;52.36
26823;BME280;14852;51.910;8.878;2022-11-04T10:55:31;98812.84;;;16.68;52.59
26823;BME280;14852;51.910;8.878;2022-11-04T10:58:00;98811.03;;;16.58;52.75
26823;BME280;14852;51.910;8.878;2022-11-04T11:00:40;98825.69;;;16.61;52.96
26823;BME280;14852;51.910;8.878;2022-11-04T11:03:25;98825.13;;;16.67;52.79
26823;BME280;14852;51.910;8.878;2022-11-04T11:05:52;98825.81;;;16.59;52.29
26823;BME280;14852;51.910;8.878;2022-11-04T11:08:32;98825.94;;;16.58;52.54
26823;BME280;14852;51.910;8.878;2022-11-04T11:10:58;98825.53;;;16.53;52.64
26823;BME280;14852;51.910;8.878;2022-11-04T11:13:33;98815.75;;;16.45;52.57
26823;BME280;14852;51.910;8.878;2022-11-04T11:16:19;98807.59;;;16.39;52.47
26823;BME280;14852;51.910;8.878;2022-11-04T11:19:16;98809.69;;;16.35;52.41
26823;BME280;14852;51.910;8.878;2022-11-04T11:21:54;98819.63;;;16.32;53.05
26823;BME280;14852;51.910;8.878;2022-11-04T11:24:26;98811.91;;;16.30;52.69
26823;BME280;14852;51.910;8.878;2022-11-04T11:27:09;98815.47;;;16.39;53.04
26823;BME280;14852;51.910;8.878;2022-11-04T11:29:39;98816.19;;;16.31;52.87
26823;BME280;14852;51.910;8.878;2022-11-04T11:32:33;98809.28;;;16.30;53.18
26823;BME280;14852;51.910;8.878;2022-11-04T11:35:01;98809.72;;;16.25;52.95
26823;BME280;14852;51.910;8.878;2022-11-04T11:37:29;98798.53;;;16.23;52.94
26823;BME280;14852;51.910;8.878;2022-11-04T11:39:56;98805.00;;;16.19;52.84
26823;BME280;14852;51.910;8.878;2022-11-04T11:42:23;98797.16;;;16.19;53.26
26823;BME280;14852;51.910;8.878;2022-11-04T11:44:54;98798.38;;;16.15;53.16
26823;BME280;14852;51.910;8.878;2022-11-04T11:47:34;98803.22;;;16.10;53.15
26823;BME280;14852;51.910;8.878;2022-11-04T11:50:17;98797.03;;;16.02;52.94
26823;BME280;14852;51.910;8.878;2022-11-04T11:52:48;98795.91;;;15.94;52.98
26823;BME280;14852;51.910;8.878;2022-11-04T11:55:26;98789.97;;;15.92;53.30
26823;BME280;14852;51.910;8.878;2022-11-04T11:58:18;98790.13;;;16.01;53.53
26823;BME280;14852;51.910;8.878;2022-11-04T12:00:53;98784.75;;;16.12;53.33
26823;BME280;14852;51.910;8.878;2022-11-04T12:03:37;98778.41;;;16.24;53.08
26823;BME280;14852;51.910;8.878;2022-11-04T12:09:17;98787.88;;;16.44;52.15
26823;BME280;14852;51.910;8.878;2022-11-04T12:21:18;98791.91;;;16.29;52.05
26823;BME280;14852;51.910;8.878;2022-11-04T12:23:58;98799.06;;;16.37;52.37
26823;BME280;14852;51.910;8.878;2022-11-04T12:26:48;98799.06;;;16.46;51.81
26823;BME280;14852;51.910;8.878;2022-11-04T12:29:32;98799.31;;;16.53;51.96
26823;BME280;14852;51.910;8.878;2022-11-04T12:35:42;98817.25;;;16.67;51.67
26823;BME280;14852;51.910;8.878;2022-11-04T12:38:35;98826.66;;;16.70;51.43
26823;BME280;14852;51.910;8.878;2022-11-04T12:44:39;98824.03;;;16.70;51.27
26823;BME280;14852;51.910;8.878;2022-11-04T12:47:35;98830.63;;;16.74;51.64
26823;BME280;14852;51.910;8.878;2022-11-04T12:56:21;98832.06;;;17.05;50.90
26823;BME280;14852;51.910;8.878;2022-11-04T13:02:01;98828.00;;;17.20;50.21
26823;BME280;14852;51.910;8.878;2022-11-04T13:07:32;98822.09;;;17.18;50.50
26823;BME280;14852;51.910;8.878;2022-11-04T13:10:13;98825.13;;;17.14;50.83
26823;BME280;14852;51.910;8.878;2022-11-04T13:12:43;98827.75;;;17.14;50.74
26823;BME280;14852;51.910;8.878;2022-11-04T13:15:21;98827.75;;;17.14;51.09
26823;BME280;14852;51.910;8.878;2022-11-04T13:17:57;98830.66;;;17.11;50.81
26823;BME280;14852;51.910;8.878;2022-11-04T13:20:50;98826.53;;;17.08;51.25
26823;BME280;14852;51.910;8.878;2022-11-04T13:23:39;98834.69;;;17.05;51.04
26823;BME280;14852;51.910;8.878;2022-11-04T13:26:13;98830.31;;;16.96;51.00
26823;BME280;14852;51.910;8.878;2022-11-04T13:28:41;98833.50;;;16.90;51.07
26823;BME280;14852;51.910;8.878;2022-11-04T13:36:48;98842.78;;;16.84;51.22
26823;BME280;14852;51.910;8.878;2022-11-04T13:43:24;98845.69;;;16.81;50.86
26823;BME280;14852;51.910;8.878;2022-11-04T13:46:26;98851.63;;;16.74;51.12
26823;BME280;14852;51.910;8.878;2022-11-04T13:49:17;98857.31;;;16.69;51.04
26823;BME280;14852;51.910;8.878;2022-11-04T13:51:47;98861.44;;;16.62;51.33
26823;BME280;14852;51.910;8.878;2022-11-04T13:54:33;98855.63;;;16.58;51.01
26823;BME280;14852;51.910;8.878;2022-11-04T13:59:37;98872.59;;;16.54;51.31
26823;BME280;14852;51.910;8.878;2022-11-04T14:04:45;98887.25;;;16.57;51.27
26823;BME280;14852;51.910;8.878;2022-11-04T14:07:16;98890.69;;;16.57;50.87
26823;BME280;14852;51.910;8.878;2022-11-04T14:14:49;98904.91;;;16.55;51.06
26823;BME280;14852;51.910;8.878;2022-11-04T14:28:17;98920.53;;;16.66;50.79
26823;BME280;14852;51.910;8.878;2022-11-04T14:30:55;98922.59;;;16.62;51.40
26823;BME280;14852;51.910;8.878;2022-11-04T14:35:50;98926.31;;;16.60;50.92
26823;BME280;14852;51.910;8.878;2022-11-04T14:38:29;98932.50;;;16.59;51.35
26823;BME280;14852;51.910;8.878;2022-11-04T14:41:22;98944.81;;;16.58;51.52
26823;BME280;14852;51.910;8.878;2022-11-04T14:44:06;98950.31;;;16.55;51.43
26823;BME280;14852;51.910;8.878;2022-11-04T14:46:46;98945.19;;;16.54;51.61
26823;BME280;14852;51.910;8.878;2022-11-04T14:49:48;98947.94;;;16.52;51.26
26823;BME280;14852;51.910;8.878;2022-11-04T14:53:02;98948.38;;;16.48;51.40
26823;BME280;14852;51.910;8.878;2022-11-04T14:55:30;98951.66;;;16.40;51.97
26823;BME280;14852;51.910;8.878;2022-11-04T14:58:30;98963.94;;;16.40;51.89
26823;BME280;14852;51.910;8.878;2022-11-04T15:01:01;98951.53;;;16.32;51.92
26823;BME280;14852;51.910;8.878;2022-11-04T15:03:37;98957.16;;;16.27;51.88
26823;BME280;14852;51.910;8.878;2022-11-04T15:06:06;98949.16;;;16.19;51.87
26823;BME280;14852;51.910;8.878;2022-11-04T15:13:50;98951.06;;;15.98;52.40
26823;BME280;14852;51.910;8.878;2022-11-04T15:16:25;98960.53;;;15.89;52.44
26823;BME280;14852;51.910;8.878;2022-11-04T15:18:55;98955.00;;;15.83;52.54
26823;BME280;14852;51.910;8.878;2022-11-04T15:21:21;98959.94;;;15.76;52.64
26823;BME280;14852;51.910;8.878;2022-11-04T15:23:51;98965.44;;;15.73;52.76
26823;BME280;14852;51.910;8.878;2022-11-04T15:26:29;98978.78;;;15.70;52.39